sensor_id;sensor_type;location;lat;lon;timestamp;P1;durP1;ratioP1;P2;durP2;ratioP2
14484;SDS011;7328;50.812;4.422;2022-09-12T00:01:07;6.67;;;5.87;;
14484;SDS011;7328;50.812;4.422;2022-09-12T00:03:35;6.13;;;5.63;;
14484;SDS011;7328;50.812;4.422;2022-09-12T00:06:06;5.90;;;5.40;;
14484;SDS011;7328;50.812;4.422;2022-09-12T00:08:59;5.63;;;5.17;;
14484;SDS011;7328;50.812;4.422;2022-09-12T00:11:29;6.57;;;5.97;;
14484;SDS011;7328;50.812;4.422;2022-09-12T00:13:56;5.60;;;5.00;;
14484;SDS011;7328;50.812;4.422;2022-09-12T00:16:24;7.67;;;5.70;;
14484;SDS011;7328;50.812;4.422;2022-09-12T00:18:51;8.53;;;5.63;;
14484;SDS011;7328;50.812;4.422;2022-09-12T00:21:17;11.03;;;6.00;;
14484;SDS011;7328;50.812;4.422;2022-09-12T00:23:44;6.40;;;5.80;;
14484;SDS011;7328;50.812;4.422;2022-09-12T00:26:11;6.50;;;5.90;;
14484;SDS011;7328;50.812;4.422;2022-09-12T00:28:37;8.50;;;5.03;;
14484;SDS011;7328;50.812;4.422;2022-09-12T00:31:05;5.93;;;5.37;;
14484;SDS011;7328;50.812;4.422;2022-09-12T00:33:33;6.03;;;5.63;;
14484;SDS011;7328;50.812;4.422;2022-09-12T00:35:59;6.13;;;5.63;;
14484;SDS011;7328;50.812;4.422;2022-09-12T00:38:28;6.27;;;5.67;;
14484;SDS011;7328;50.812;4.422;2022-09-12T00:40:54;5.47;;;5.00;;
14484;SDS011;7328;50.812;4.422;2022-09-12T00:45:55;6.47;;;5.87;;
14484;SDS011;7328;50.812;4.422;2022-09-12T00:48:23;5.70;;;5.23;;
14484;SDS011;7328;50.812;4.422;2022-09-12T00:50:56;6.37;;;5.77;;
14484;SDS011;7328;50.812;4.422;2022-09-12T00:53:22;7.13;;;6.10;;
14484;SDS011;7328;50.812;4.422;2022-09-12T00:55:49;5.33;;;4.87;;
14484;SDS011;7328;50.812;4.422;2022-09-12T00:58:21;5.87;;;5.37;;
14484;SDS011;7328;50.812;4.422;2022-09-12T01:00:50;5.73;;;5.27;;
14484;SDS011;7328;50.812;4.422;2022-09-12T01:03:18;6.60;;;6.00;;
14484;SDS011;7328;50.812;4.422;2022-09-12T01:05:58;5.53;;;5.03;;
14484;SDS011;7328;50.812;4.422;2022-09-12T01:08:29;7.87;;;5.67;;
14484;SDS011;7328;50.812;4.422;2022-09-12T01:10:56;6.63;;;6.00;;
14484;SDS011;7328;50.812;4.422;2022-09-12T01:13:22;5.93;;;5.37;;
14484;SDS011;7328;50.812;4.422;2022-09-12T01:15:48;10.43;;;5.73;;
14484;SDS011;7328;50.812;4.422;2022-09-12T01:35:39;7.13;;;6.57;;
14484;SDS011;7328;50.812;4.422;2022-09-12T01:38:21;7.13;;;6.43;;
14484;SDS011;7328;50.812;4.422;2022-09-12T01:47:02;5.90;;;5.50;;
14484;SDS011;7328;50.812;4.422;2022-09-12T01:50:12;6.47;;;5.97;;
14484;SDS011;7328;50.812;4.422;2022-09-12T01:52:23;7.03;;;6.43;;
14484;SDS011;7328;50.812;4.422;2022-09-12T01:54:54;6.03;;;5.53;;
14484;SDS011;7328;50.812;4.422;2022-09-12T01:57:36;6.07;;;5.57;;
14484;SDS011;7328;50.812;4.422;2022-09-12T02:00:10;6.40;;;5.80;;
14484;SDS011;7328;50.812;4.422;2022-09-12T02:02:38;7.40;;;6.33;;
14484;SDS011;7328;50.812;4.422;2022-09-12T02:05:29;6.30;;;5.27;;
14484;SDS011;7328;50.812;4.422;2022-09-12T02:08:00;6.17;;;5.67;;
14484;SDS011;7328;50.812;4.422;2022-09-12T02:10:32;5.63;;;5.23;;
14484;SDS011;7328;50.812;4.422;2022-09-12T02:13:18;8.13;;;5.30;;
14484;SDS011;7328;50.812;4.422;2022-09-12T02:15:53;8.10;;;6.30;;
14484;SDS011;7328;50.812;4.422;2022-09-12T02:18:24;7.07;;;6.30;;
14484;SDS011;7328;50.812;4.422;2022-09-12T02:20:54;5.90;;;5.47;;
14484;SDS011;7328;50.812;4.422;2022-09-12T02:23:22;7.23;;;5.73;;
14484;SDS011;7328;50.812;4.422;2022-09-12T02:25:57;5.80;;;5.40;;
14484;SDS011;7328;50.812;4.422;2022-09-12T02:28:32;6.87;;;5.97;;
14484;SDS011;7328;50.812;4.422;2022-09-12T02:31:04;6.53;;;5.63;;
14484;SDS011;7328;50.812;4.422;2022-09-12T02:33:38;12.40;;;6.30;;
14484;SDS011;7328;50.812;4.422;2022-09-12T02:36:31;6.30;;;5.80;;
14484;SDS011;7328;50.812;4.422;2022-09-12T02:38:59;7.33;;;5.77;;
14484;SDS011;7328;50.812;4.422;2022-09-12T02:41:25;5.87;;;5.30;;
14484;SDS011;7328;50.812;4.422;2022-09-12T02:43:51;7.27;;;6.30;;
14484;SDS011;7328;50.812;4.422;2022-09-12T02:46:21;5.83;;;5.23;;
14484;SDS011;7328;50.812;4.422;2022-09-12T02:48:50;5.90;;;5.40;;
14484;SDS011;7328;50.812;4.422;2022-09-12T02:51:17;6.27;;;5.77;;
14484;SDS011;7328;50.812;4.422;2022-09-12T02:53:43;6.10;;;5.60;;
14484;SDS011;7328;50.812;4.422;2022-09-12T02:56:10;5.83;;;5.43;;
14484;SDS011;7328;50.812;4.422;2022-09-12T02:58:41;5.53;;;5.03;;
14484;SDS011;7328;50.812;4.422;2022-09-12T03:03:59;5.80;;;5.30;;
14484;SDS011;7328;50.812;4.422;2022-09-12T03:06:46;7.07;;;6.37;;
14484;SDS011;7328;50.812;4.422;2022-09-12T03:09:30;6.07;;;5.47;;
14484;SDS011;7328;50.812;4.422;2022-09-12T03:15:11;6.83;;;6.33;;
14484;SDS011;7328;50.812;4.422;2022-09-12T03:20:21;6.37;;;5.87;;
14484;SDS011;7328;50.812;4.422;2022-09-12T03:22:58;7.37;;;6.63;;
14484;SDS011;7328;50.812;4.422;2022-09-12T03:25:48;6.83;;;5.27;;
14484;SDS011;7328;50.812;4.422;2022-09-12T03:28:21;6.07;;;5.33;;
14484;SDS011;7328;50.812;4.422;2022-09-12T03:30:48;6.87;;;6.37;;
14484;SDS011;7328;50.812;4.422;2022-09-12T03:33:20;5.93;;;5.47;;
14484;SDS011;7328;50.812;4.422;2022-09-12T03:35:48;6.20;;;5.70;;
14484;SDS011;7328;50.812;4.422;2022-09-12T03:38:14;6.10;;;5.50;;
14484;SDS011;7328;50.812;4.422;2022-09-12T03:40:40;9.00;;;7.73;;
14484;SDS011;7328;50.812;4.422;2022-09-12T03:43:07;8.97;;;6.57;;
14484;SDS011;7328;50.812;4.422;2022-09-12T03:45:33;9.00;;;5.70;;
14484;SDS011;7328;50.812;4.422;2022-09-12T03:48:00;8.60;;;6.63;;
14484;SDS011;7328;50.812;4.422;2022-09-12T03:50:26;14.40;;;6.47;;
14484;SDS011;7328;50.812;4.422;2022-09-12T03:52:52;8.50;;;6.57;;
14484;SDS011;7328;50.812;4.422;2022-09-12T03:55:18;6.33;;;5.57;;
14484;SDS011;7328;50.812;4.422;2022-09-12T03:57:43;7.10;;;6.40;;
14484;SDS011;7328;50.812;4.422;2022-09-12T04:00:09;8.77;;;6.23;;
14484;SDS011;7328;50.812;4.422;2022-09-12T04:02:35;8.83;;;6.03;;
14484;SDS011;7328;50.812;4.422;2022-09-12T04:05:01;7.33;;;6.63;;
14484;SDS011;7328;50.812;4.422;2022-09-12T04:07:27;6.70;;;6.13;;
14484;SDS011;7328;50.812;4.422;2022-09-12T04:09:53;6.23;;;5.63;;
14484;SDS011;7328;50.812;4.422;2022-09-12T04:12:20;6.47;;;5.97;;
14484;SDS011;7328;50.812;4.422;2022-09-12T04:14:46;11.23;;;6.13;;
14484;SDS011;7328;50.812;4.422;2022-09-12T04:17:12;6.27;;;5.67;;
14484;SDS011;7328;50.812;4.422;2022-09-12T04:19:38;6.70;;;5.43;;
14484;SDS011;7328;50.812;4.422;2022-09-12T04:22:04;6.27;;;5.77;;
14484;SDS011;7328;50.812;4.422;2022-09-12T04:24:30;7.33;;;6.47;;
14484;SDS011;7328;50.812;4.422;2022-09-12T04:26:56;11.77;;;5.70;;
14484;SDS011;7328;50.812;4.422;2022-09-12T04:29:22;6.60;;;6.07;;
14484;SDS011;7328;50.812;4.422;2022-09-12T04:31:47;6.20;;;5.67;;
14484;SDS011;7328;50.812;4.422;2022-09-12T04:34:13;7.07;;;6.57;;
14484;SDS011;7328;50.812;4.422;2022-09-12T04:36:39;6.23;;;5.70;;
14484;SDS011;7328;50.812;4.422;2022-09-12T04:39:06;6.27;;;5.67;;
14484;SDS011;7328;50.812;4.422;2022-09-12T04:41:36;10.33;;;6.47;;
14484;SDS011;7328;50.812;4.422;2022-09-12T04:44:04;6.97;;;5.90;;
14484;SDS011;7328;50.812;4.422;2022-09-12T04:46:33;9.63;;;6.43;;
14484;SDS011;7328;50.812;4.422;2022-09-12T04:49:01;7.67;;;7.07;;
14484;SDS011;7328;50.812;4.422;2022-09-12T04:51:30;7.03;;;6.43;;
14484;SDS011;7328;50.812;4.422;2022-09-12T04:54:01;14.60;;;7.80;;
14484;SDS011;7328;50.812;4.422;2022-09-12T04:56:29;12.30;;;7.90;;
14484;SDS011;7328;50.812;4.422;2022-09-12T04:58:56;14.63;;;7.63;;
14484;SDS011;7328;50.812;4.422;2022-09-12T05:01:23;9.43;;;8.47;;
14484;SDS011;7328;50.812;4.422;2022-09-12T05:03:49;9.13;;;8.23;;
14484;SDS011;7328;50.812;4.422;2022-09-12T05:06:17;9.20;;;8.30;;
14484;SDS011;7328;50.812;4.422;2022-09-12T05:08:45;9.83;;;8.37;;
14484;SDS011;7328;50.812;4.422;2022-09-12T05:11:15;9.07;;;8.17;;
14484;SDS011;7328;50.812;4.422;2022-09-12T05:13:42;9.73;;;8.17;;
14484;SDS011;7328;50.812;4.422;2022-09-12T05:16:12;10.03;;;8.57;;
14484;SDS011;7328;50.812;4.422;2022-09-12T05:18:42;9.77;;;8.77;;
14484;SDS011;7328;50.812;4.422;2022-09-12T05:21:10;11.37;;;7.73;;
14484;SDS011;7328;50.812;4.422;2022-09-12T05:23:37;10.27;;;8.27;;
14484;SDS011;7328;50.812;4.422;2022-09-12T05:26:04;11.23;;;8.57;;
14484;SDS011;7328;50.812;4.422;2022-09-12T05:28:32;11.00;;;9.87;;
14484;SDS011;7328;50.812;4.422;2022-09-12T05:31:03;10.97;;;9.67;;
14484;SDS011;7328;50.812;4.422;2022-09-12T05:33:34;10.80;;;9.53;;
14484;SDS011;7328;50.812;4.422;2022-09-12T05:36:02;9.93;;;9.03;;
14484;SDS011;7328;50.812;4.422;2022-09-12T05:38:28;10.17;;;9.23;;
14484;SDS011;7328;50.812;4.422;2022-09-12T05:41:04;10.57;;;9.63;;
14484;SDS011;7328;50.812;4.422;2022-09-12T05:43:32;14.80;;;9.73;;
14484;SDS011;7328;50.812;4.422;2022-09-12T05:46:01;18.93;;;9.87;;
14484;SDS011;7328;50.812;4.422;2022-09-12T05:48:35;11.20;;;10.17;;
14484;SDS011;7328;50.812;4.422;2022-09-12T05:51:05;10.87;;;8.80;;
14484;SDS011;7328;50.812;4.422;2022-09-12T05:53:35;13.63;;;8.73;;
14484;SDS011;7328;50.812;4.422;2022-09-12T05:56:03;10.60;;;9.53;;
14484;SDS011;7328;50.812;4.422;2022-09-12T05:58:34;10.47;;;9.57;;
14484;SDS011;7328;50.812;4.422;2022-09-12T06:01:02;11.10;;;9.83;;
14484;SDS011;7328;50.812;4.422;2022-09-12T06:03:29;10.77;;;9.87;;
14484;SDS011;7328;50.812;4.422;2022-09-12T06:05:55;17.90;;;9.30;;
14484;SDS011;7328;50.812;4.422;2022-09-12T06:08:21;12.83;;;9.83;;
14484;SDS011;7328;50.812;4.422;2022-09-12T06:10:47;10.80;;;9.67;;
14484;SDS011;7328;50.812;4.422;2022-09-12T06:13:13;10.43;;;9.23;;
14484;SDS011;7328;50.812;4.422;2022-09-12T06:15:39;12.13;;;9.20;;
14484;SDS011;7328;50.812;4.422;2022-09-12T06:18:04;20.57;;;10.67;;
14484;SDS011;7328;50.812;4.422;2022-09-12T06:20:30;14.93;;;8.67;;
14484;SDS011;7328;50.812;4.422;2022-09-12T06:22:56;12.20;;;10.40;;
14484;SDS011;7328;50.812;4.422;2022-09-12T06:25:22;12.57;;;10.13;;
14484;SDS011;7328;50.812;4.422;2022-09-12T06:27:47;13.30;;;10.77;;
14484;SDS011;7328;50.812;4.422;2022-09-12T06:30:13;22.67;;;10.23;;
14484;SDS011;7328;50.812;4.422;2022-09-12T06:32:39;15.07;;;9.90;;
14484;SDS011;7328;50.812;4.422;2022-09-12T06:35:05;23.53;;;10.97;;
14484;SDS011;7328;50.812;4.422;2022-09-12T06:37:31;13.67;;;10.63;;
14484;SDS011;7328;50.812;4.422;2022-09-12T06:39:56;17.77;;;11.43;;
14484;SDS011;7328;50.812;4.422;2022-09-12T06:42:22;12.00;;;10.70;;
14484;SDS011;7328;50.812;4.422;2022-09-12T06:44:48;11.33;;;9.00;;
14484;SDS011;7328;50.812;4.422;2022-09-12T06:47:14;14.03;;;11.10;;
14484;SDS011;7328;50.812;4.422;2022-09-12T06:49:40;10.90;;;9.93;;
14484;SDS011;7328;50.812;4.422;2022-09-12T06:52:05;11.37;;;9.77;;
14484;SDS011;7328;50.812;4.422;2022-09-12T06:54:31;10.67;;;9.50;;
14484;SDS011;7328;50.812;4.422;2022-09-12T06:56:57;11.47;;;9.40;;
14484;SDS011;7328;50.812;4.422;2022-09-12T06:59:23;18.30;;;11.73;;
14484;SDS011;7328;50.812;4.422;2022-09-12T07:01:48;15.97;;;10.03;;
14484;SDS011;7328;50.812;4.422;2022-09-12T07:04:14;9.13;;;8.20;;
14484;SDS011;7328;50.812;4.422;2022-09-12T07:06:41;11.37;;;10.10;;
14484;SDS011;7328;50.812;4.422;2022-09-12T07:09:10;13.17;;;10.13;;
14484;SDS011;7328;50.812;4.422;2022-09-12T07:11:37;10.17;;;9.03;;
14484;SDS011;7328;50.812;4.422;2022-09-12T07:14:05;9.77;;;8.87;;
14484;SDS011;7328;50.812;4.422;2022-09-12T07:16:33;9.33;;;8.53;;
14484;SDS011;7328;50.812;4.422;2022-09-12T07:19:01;8.43;;;7.57;;
14484;SDS011;7328;50.812;4.422;2022-09-12T07:21:28;9.17;;;8.20;;
14484;SDS011;7328;50.812;4.422;2022-09-12T07:23:54;9.07;;;8.00;;
14484;SDS011;7328;50.812;4.422;2022-09-12T07:26:22;8.40;;;7.80;;
14484;SDS011;7328;50.812;4.422;2022-09-12T07:28:49;8.73;;;7.93;;
14484;SDS011;7328;50.812;4.422;2022-09-12T07:31:20;7.47;;;6.70;;
14484;SDS011;7328;50.812;4.422;2022-09-12T07:33:47;8.50;;;7.60;;
14484;SDS011;7328;50.812;4.422;2022-09-12T07:36:15;8.70;;;5.67;;
14484;SDS011;7328;50.812;4.422;2022-09-12T07:38:42;7.53;;;6.50;;
14484;SDS011;7328;50.812;4.422;2022-09-12T07:41:14;7.70;;;6.43;;
14484;SDS011;7328;50.812;4.422;2022-09-12T07:43:39;8.53;;;6.77;;
14484;SDS011;7328;50.812;4.422;2022-09-12T07:46:08;6.97;;;6.30;;
14484;SDS011;7328;50.812;4.422;2022-09-12T07:48:35;6.43;;;5.87;;
14484;SDS011;7328;50.812;4.422;2022-09-12T07:51:03;6.43;;;6.03;;
14484;SDS011;7328;50.812;4.422;2022-09-12T07:53:31;5.13;;;4.83;;
14484;SDS011;7328;50.812;4.422;2022-09-12T07:56:03;9.10;;;6.37;;
14484;SDS011;7328;50.812;4.422;2022-09-12T07:58:30;7.77;;;6.00;;
14484;SDS011;7328;50.812;4.422;2022-09-12T08:03:37;7.13;;;6.17;;
14484;SDS011;7328;50.812;4.422;2022-09-12T08:06:11;4.97;;;4.57;;
14484;SDS011;7328;50.812;4.422;2022-09-12T08:08:38;9.63;;;6.20;;
14484;SDS011;7328;50.812;4.422;2022-09-12T08:11:08;5.27;;;4.63;;
14484;SDS011;7328;50.812;4.422;2022-09-12T08:13:36;6.33;;;5.80;;
14484;SDS011;7328;50.812;4.422;2022-09-12T08:16:04;5.03;;;4.63;;
14484;SDS011;7328;50.812;4.422;2022-09-12T08:18:33;5.27;;;4.53;;
14484;SDS011;7328;50.812;4.422;2022-09-12T08:21:01;4.83;;;4.43;;
14484;SDS011;7328;50.812;4.422;2022-09-12T08:23:29;4.93;;;4.20;;
14484;SDS011;7328;50.812;4.422;2022-09-12T08:25:56;4.83;;;4.40;;
14484;SDS011;7328;50.812;4.422;2022-09-12T08:28:23;7.17;;;4.80;;
14484;SDS011;7328;50.812;4.422;2022-09-12T08:30:50;5.00;;;4.70;;
14484;SDS011;7328;50.812;4.422;2022-09-12T08:33:16;5.50;;;5.07;;
14484;SDS011;7328;50.812;4.422;2022-09-12T08:35:42;5.80;;;5.23;;
14484;SDS011;7328;50.812;4.422;2022-09-12T08:38:08;4.87;;;4.47;;
14484;SDS011;7328;50.812;4.422;2022-09-12T08:40:40;5.40;;;5.03;;
14484;SDS011;7328;50.812;4.422;2022-09-12T08:46:07;5.63;;;4.37;;
14484;SDS011;7328;50.812;4.422;2022-09-12T08:48:43;5.87;;;5.37;;
14484;SDS011;7328;50.812;4.422;2022-09-12T08:51:11;5.00;;;4.57;;
14484;SDS011;7328;50.812;4.422;2022-09-12T08:53:40;5.13;;;4.40;;
14484;SDS011;7328;50.812;4.422;2022-09-12T08:56:08;4.73;;;4.40;;
14484;SDS011;7328;50.812;4.422;2022-09-12T08:58:38;5.40;;;4.70;;
14484;SDS011;7328;50.812;4.422;2022-09-12T09:09:41;6.83;;;3.70;;
14484;SDS011;7328;50.812;4.422;2022-09-12T09:12:16;5.87;;;4.03;;
14484;SDS011;7328;50.812;4.422;2022-09-12T09:17:22;6.77;;;3.77;;
14484;SDS011;7328;50.812;4.422;2022-09-12T09:25:52;4.70;;;4.30;;
14484;SDS011;7328;50.812;4.422;2022-09-12T09:28:45;4.43;;;4.10;;
14484;SDS011;7328;50.812;4.422;2022-09-12T09:31:27;5.80;;;4.60;;
14484;SDS011;7328;50.812;4.422;2022-09-12T09:33:57;4.23;;;3.90;;
14484;SDS011;7328;50.812;4.422;2022-09-12T09:42:00;3.90;;;3.30;;
14484;SDS011;7328;50.812;4.422;2022-09-12T09:44:48;3.73;;;3.43;;
14484;SDS011;7328;50.812;4.422;2022-09-12T09:47:17;4.27;;;3.03;;
14484;SDS011;7328;50.812;4.422;2022-09-12T09:49:44;4.80;;;4.23;;
14484;SDS011;7328;50.812;4.422;2022-09-12T09:52:10;4.07;;;3.17;;
14484;SDS011;7328;50.812;4.422;2022-09-12T09:54:43;3.63;;;2.90;;
14484;SDS011;7328;50.812;4.422;2022-09-12T10:00:18;2.43;;;2.23;;
14484;SDS011;7328;50.812;4.422;2022-09-12T10:05:43;2.47;;;2.10;;
14484;SDS011;7328;50.812;4.422;2022-09-12T10:10:59;2.10;;;2.00;;
14484;SDS011;7328;50.812;4.422;2022-09-12T10:16:31;2.47;;;2.37;;
14484;SDS011;7328;50.812;4.422;2022-09-12T10:18:59;2.40;;;2.20;;
14484;SDS011;7328;50.812;4.422;2022-09-12T10:21:35;3.93;;;2.93;;
14484;SDS011;7328;50.812;4.422;2022-09-12T10:24:19;2.10;;;2.00;;
14484;SDS011;7328;50.812;4.422;2022-09-12T10:29:31;3.57;;;2.50;;
14484;SDS011;7328;50.812;4.422;2022-09-12T10:32:04;2.97;;;2.67;;
14484;SDS011;7328;50.812;4.422;2022-09-12T10:34:36;4.03;;;2.60;;
14484;SDS011;7328;50.812;4.422;2022-09-12T10:37:17;1.77;;;1.67;;
14484;SDS011;7328;50.812;4.422;2022-09-12T10:40:00;2.20;;;2.10;;
14484;SDS011;7328;50.812;4.422;2022-09-12T10:45:20;2.03;;;1.83;;
14484;SDS011;7328;50.812;4.422;2022-09-12T10:47:53;3.30;;;2.10;;
14484;SDS011;7328;50.812;4.422;2022-09-12T10:53:21;1.77;;;1.60;;
14484;SDS011;7328;50.812;4.422;2022-09-12T11:01:08;2.13;;;1.93;;
14484;SDS011;7328;50.812;4.422;2022-09-12T11:04:33;1.60;;;1.50;;
14484;SDS011;7328;50.812;4.422;2022-09-12T11:15:39;5.33;;;2.57;;
14484;SDS011;7328;50.812;4.422;2022-09-12T11:18:24;2.07;;;1.93;;
14484;SDS011;7328;50.812;4.422;2022-09-12T11:30:03;2.03;;;1.53;;
14484;SDS011;7328;50.812;4.422;2022-09-12T11:40:43;1.47;;;1.37;;
14484;SDS011;7328;50.812;4.422;2022-09-12T11:43:36;2.33;;;2.23;;
14484;SDS011;7328;50.812;4.422;2022-09-12T11:57:42;2.90;;;1.53;;
14484;SDS011;7328;50.812;4.422;2022-09-12T12:00:20;5.80;;;1.80;;
14484;SDS011;7328;50.812;4.422;2022-09-12T12:05:33;10.87;;;1.83;;
14484;SDS011;7328;50.812;4.422;2022-09-12T12:08:23;3.03;;;1.40;;
14484;SDS011;7328;50.812;4.422;2022-09-12T12:10:53;1.30;;;1.20;;
14484;SDS011;7328;50.812;4.422;2022-09-12T12:15:59;1.27;;;1.17;;
14484;SDS011;7328;50.812;4.422;2022-09-12T12:18:37;4.38;;;1.45;;
14484;SDS011;7328;50.812;4.422;2022-09-12T12:26:44;5.32;;;1.67;;
14484;SDS011;7328;50.812;4.422;2022-09-12T12:34:27;2.13;;;1.48;;
14484;SDS011;7328;50.812;4.422;2022-09-12T12:45:00;1.65;;;1.55;;
14484;SDS011;7328;50.812;4.422;2022-09-12T12:49:59;4.22;;;1.70;;
14484;SDS011;7328;50.812;4.422;2022-09-12T12:57:58;1.85;;;1.23;;
14484;SDS011;7328;50.812;4.422;2022-09-12T13:00:35;2.28;;;1.38;;
14484;SDS011;7328;50.812;4.422;2022-09-12T13:05:43;1.73;;;1.30;;
14484;SDS011;7328;50.812;4.422;2022-09-12T13:10:48;3.80;;;1.30;;
14484;SDS011;7328;50.812;4.422;2022-09-12T13:13:26;1.95;;;1.83;;
14484;SDS011;7328;50.812;4.422;2022-09-12T13:15:56;1.58;;;1.23;;
14484;SDS011;7328;50.812;4.422;2022-09-12T13:18:23;3.75;;;1.05;;
14484;SDS011;7328;50.812;4.422;2022-09-12T13:23:33;5.05;;;1.60;;
14484;SDS011;7328;50.812;4.422;2022-09-12T13:26:00;1.42;;;1.30;;
14484;SDS011;7328;50.812;4.422;2022-09-12T13:28:27;2.00;;;1.33;;
14484;SDS011;7328;50.812;4.422;2022-09-12T13:30:56;1.75;;;1.20;;
14484;SDS011;7328;50.812;4.422;2022-09-12T13:33:35;1.92;;;1.45;;
14484;SDS011;7328;50.812;4.422;2022-09-12T13:44:06;4.72;;;1.80;;
14484;SDS011;7328;50.812;4.422;2022-09-12T13:46:35;1.02;;;1.00;;
14484;SDS011;7328;50.812;4.422;2022-09-12T13:49:05;2.38;;;1.10;;
14484;SDS011;7328;50.812;4.422;2022-09-12T13:51:37;1.45;;;1.42;;
14484;SDS011;7328;50.812;4.422;2022-09-12T13:54:03;1.63;;;1.58;;
14484;SDS011;7328;50.812;4.422;2022-09-12T13:56:29;4.00;;;1.73;;
14484;SDS011;7328;50.812;4.422;2022-09-12T13:58:59;1.58;;;1.52;;
14484;SDS011;7328;50.812;4.422;2022-09-12T14:01:39;2.00;;;1.80;;
14484;SDS011;7328;50.812;4.422;2022-09-12T14:04:17;1.88;;;1.77;;
14484;SDS011;7328;50.812;4.422;2022-09-12T14:09:40;1.52;;;1.50;;
14484;SDS011;7328;50.812;4.422;2022-09-12T14:12:18;4.85;;;1.50;;
14484;SDS011;7328;50.812;4.422;2022-09-12T14:14:53;1.92;;;1.83;;
14484;SDS011;7328;50.812;4.422;2022-09-12T14:17:33;1.42;;;1.42;;
14484;SDS011;7328;50.812;4.422;2022-09-12T14:20:22;1.55;;;1.50;;
14484;SDS011;7328;50.812;4.422;2022-09-12T14:22:48;1.33;;;1.25;;
14484;SDS011;7328;50.812;4.422;2022-09-12T14:25:16;1.67;;;1.58;;
14484;SDS011;7328;50.812;4.422;2022-09-12T14:27:52;1.73;;;1.63;;
14484;SDS011;7328;50.812;4.422;2022-09-12T14:30:26;2.60;;;1.95;;
14484;SDS011;7328;50.812;4.422;2022-09-12T14:33:01;7.65;;;3.72;;
14484;SDS011;7328;50.812;4.422;2022-09-12T14:35:29;3.13;;;1.88;;
14484;SDS011;7328;50.812;4.422;2022-09-12T14:37:56;4.22;;;2.70;;
14484;SDS011;7328;50.812;4.422;2022-09-12T14:41:00;2.85;;;1.35;;
14484;SDS011;7328;50.812;4.422;2022-09-12T14:43:27;3.42;;;1.90;;
14484;SDS011;7328;50.812;4.422;2022-09-12T14:46:38;3.58;;;2.28;;
14484;SDS011;7328;50.812;4.422;2022-09-12T14:51:48;2.67;;;2.03;;
14484;SDS011;7328;50.812;4.422;2022-09-12T14:57:43;1.42;;;1.40;;
14484;SDS011;7328;50.812;4.422;2022-09-12T15:02:42;1.95;;;1.73;;
14484;SDS011;7328;50.812;4.422;2022-09-12T15:07:41;5.60;;;1.92;;
14484;SDS011;7328;50.812;4.422;2022-09-12T15:10:29;2.15;;;2.05;;
14484;SDS011;7328;50.812;4.422;2022-09-12T15:15:30;2.10;;;1.90;;
14484;SDS011;7328;50.812;4.422;2022-09-12T15:17:57;2.90;;;1.75;;
14484;SDS011;7328;50.812;4.422;2022-09-12T15:20:23;2.25;;;2.05;;
14484;SDS011;7328;50.812;4.422;2022-09-12T15:22:50;2.10;;;2.00;;
14484;SDS011;7328;50.812;4.422;2022-09-12T15:25:16;2.05;;;1.95;;
14484;SDS011;7328;50.812;4.422;2022-09-12T15:27:42;2.05;;;1.95;;
14484;SDS011;7328;50.812;4.422;2022-09-12T15:30:09;2.25;;;1.40;;
14484;SDS011;7328;50.812;4.422;2022-09-12T15:32:37;2.30;;;1.77;;
14484;SDS011;7328;50.812;4.422;2022-09-12T15:35:08;2.22;;;1.50;;
14484;SDS011;7328;50.812;4.422;2022-09-12T15:37:42;1.58;;;1.58;;
14484;SDS011;7328;50.812;4.422;2022-09-12T15:40:08;3.42;;;1.90;;
14484;SDS011;7328;50.812;4.422;2022-09-12T15:42:37;1.75;;;1.65;;
14484;SDS011;7328;50.812;4.422;2022-09-12T15:45:48;4.53;;;2.40;;
14484;SDS011;7328;50.812;4.422;2022-09-12T15:47:51;1.83;;;1.73;;
14484;SDS011;7328;50.812;4.422;2022-09-12T15:50:18;2.25;;;1.83;;
14484;SDS011;7328;50.812;4.422;2022-09-12T15:52:43;1.88;;;1.77;;
14484;SDS011;7328;50.812;4.422;2022-09-12T15:55:14;1.58;;;1.58;;
14484;SDS011;7328;50.812;4.422;2022-09-12T15:57:42;1.75;;;1.50;;
14484;SDS011;7328;50.812;4.422;2022-09-12T16:00:08;4.53;;;1.83;;
14484;SDS011;7328;50.812;4.422;2022-09-12T16:02:34;2.10;;;1.45;;
14484;SDS011;7328;50.812;4.422;2022-09-12T16:05:00;2.05;;;1.40;;
14484;SDS011;7328;50.812;4.422;2022-09-12T16:07:26;1.73;;;1.63;;
14484;SDS011;7328;50.812;4.422;2022-09-12T16:09:52;1.50;;;1.48;;
14484;SDS011;7328;50.812;4.422;2022-09-12T16:12:17;2.42;;;1.60;;
14484;SDS011;7328;50.812;4.422;2022-09-12T16:14:43;7.95;;;1.85;;
14484;SDS011;7328;50.812;4.422;2022-09-12T16:17:12;1.30;;;1.30;;
14484;SDS011;7328;50.812;4.422;2022-09-12T16:19:38;3.05;;;1.92;;
14484;SDS011;7328;50.812;4.422;2022-09-12T16:22:03;2.05;;;1.95;;
14484;SDS011;7328;50.812;4.422;2022-09-12T16:24:29;1.95;;;1.40;;
14484;SDS011;7328;50.812;4.422;2022-09-12T16:26:55;11.13;;;2.92;;
14484;SDS011;7328;50.812;4.422;2022-09-12T16:29:21;9.57;;;1.95;;
14484;SDS011;7328;50.812;4.422;2022-09-12T16:31:46;2.65;;;1.08;;
14484;SDS011;7328;50.812;4.422;2022-09-12T16:34:12;2.97;;;1.48;;
14484;SDS011;7328;50.812;4.422;2022-09-12T16:36:38;11.00;;;1.58;;
14484;SDS011;7328;50.812;4.422;2022-09-12T16:39:03;1.83;;;1.38;;
14484;SDS011;7328;50.812;4.422;2022-09-12T16:41:30;2.37;;;1.30;;
14484;SDS011;7328;50.812;4.422;2022-09-12T16:43:56;3.97;;;1.40;;
14484;SDS011;7328;50.812;4.422;2022-09-12T16:46:26;2.83;;;1.57;;
14484;SDS011;7328;50.812;4.422;2022-09-12T16:48:53;3.63;;;1.83;;
14484;SDS011;7328;50.812;4.422;2022-09-12T16:51:24;5.83;;;2.50;;
14484;SDS011;7328;50.812;4.422;2022-09-12T16:54:02;1.80;;;1.70;;
14484;SDS011;7328;50.812;4.422;2022-09-12T16:56:28;3.53;;;1.33;;
14484;SDS011;7328;50.812;4.422;2022-09-12T16:58:54;3.90;;;2.30;;
14484;SDS011;7328;50.812;4.422;2022-09-12T17:01:21;2.30;;;1.47;;
14484;SDS011;7328;50.812;4.422;2022-09-12T17:03:51;9.47;;;3.07;;
14484;SDS011;7328;50.812;4.422;2022-09-12T17:06:21;5.03;;;2.00;;
14484;SDS011;7328;50.812;4.422;2022-09-12T17:08:49;6.23;;;2.93;;
14484;SDS011;7328;50.812;4.422;2022-09-12T17:11:17;10.23;;;2.90;;
14484;SDS011;7328;50.812;4.422;2022-09-12T17:13:55;3.53;;;1.93;;
14484;SDS011;7328;50.812;4.422;2022-09-12T17:16:22;5.13;;;1.70;;
14484;SDS011;7328;50.812;4.422;2022-09-12T17:18:48;6.90;;;2.83;;
14484;SDS011;7328;50.812;4.422;2022-09-12T17:21:16;6.87;;;2.10;;
14484;SDS011;7328;50.812;4.422;2022-09-12T17:23:42;7.03;;;2.17;;
14484;SDS011;7328;50.812;4.422;2022-09-12T17:26:08;7.97;;;2.13;;
14484;SDS011;7328;50.812;4.422;2022-09-12T17:28:35;7.83;;;1.97;;
14484;SDS011;7328;50.812;4.422;2022-09-12T17:31:03;7.10;;;1.50;;
14484;SDS011;7328;50.812;4.422;2022-09-12T17:33:31;1.40;;;1.27;;
14484;SDS011;7328;50.812;4.422;2022-09-12T17:36:03;3.70;;;1.90;;
14484;SDS011;7328;50.812;4.422;2022-09-12T17:38:35;16.87;;;2.53;;
14484;SDS011;7328;50.812;4.422;2022-09-12T17:41:07;12.47;;;2.87;;
14484;SDS011;7328;50.812;4.422;2022-09-12T17:43:34;1.87;;;1.77;;
14484;SDS011;7328;50.812;4.422;2022-09-12T17:46:02;2.23;;;1.47;;
14484;SDS011;7328;50.812;4.422;2022-09-12T17:48:29;4.73;;;2.00;;
14484;SDS011;7328;50.812;4.422;2022-09-12T17:50:55;14.57;;;3.20;;
14484;SDS011;7328;50.812;4.422;2022-09-12T17:53:21;4.43;;;2.00;;
14484;SDS011;7328;50.812;4.422;2022-09-12T17:55:46;6.37;;;2.33;;
14484;SDS011;7328;50.812;4.422;2022-09-12T17:58:12;2.77;;;2.40;;
14484;SDS011;7328;50.812;4.422;2022-09-12T18:00:38;20.53;;;3.43;;
14484;SDS011;7328;50.812;4.422;2022-09-12T18:03:23;4.53;;;3.00;;
14484;SDS011;7328;50.812;4.422;2022-09-12T18:05:53;5.17;;;3.10;;
14484;SDS011;7328;50.812;4.422;2022-09-12T18:08:20;46.43;;;5.70;;
14484;SDS011;7328;50.812;4.422;2022-09-12T18:10:47;14.97;;;3.23;;
14484;SDS011;7328;50.812;4.422;2022-09-12T18:13:13;6.33;;;2.20;;
14484;SDS011;7328;50.812;4.422;2022-09-12T18:15:40;6.77;;;3.20;;
14484;SDS011;7328;50.812;4.422;2022-09-12T18:18:06;14.70;;;4.60;;
14484;SDS011;7328;50.812;4.422;2022-09-12T18:20:32;8.40;;;3.63;;
14484;SDS011;7328;50.812;4.422;2022-09-12T18:22:58;36.83;;;6.37;;
14484;SDS011;7328;50.812;4.422;2022-09-12T18:25:24;10.00;;;2.93;;